Terminal Aerodrome Forecast
Issued by NWS

Home | Current Version | Previous Version | Text Only | Print | Product List | Glossary On
Versions: 1 2 3 4 5 6 7 8 9 10 11 12 13 14
972
FTUS44 KTSA 221720
TAFBVO
TAF
KBVO 221720Z 2218/2318 17010G17KT P6SM FEW035 FEW250
     FM230100 17003KT P6SM SCT250
     FM231500 17007KT P6SM FEW035
      AMD NOT SKED=

USA.gov is the U.S. government's official web portal to all federal, state and local government web resources and services.